Time;durP1;ratioP1;P1;durP2;ratioP2;P2;SDS_P1;SDS_P2;PMS_P1;PMS_P2;Temp;Humidity;BMP_temperature;BMP_pressure;BME280_temperature;BME280_humidity;BME280_pressure;Samples;Min_cycle;Max_cycle;Signal;HPM_P1;HPM_P2
2020/12/10 00:00:46;;;;;;;;;;;6.60;77.30;;;;;;4971795;28;117653;-86
2020/12/10 00:03:12;;;;;;;;;;;6.60;77.30;;;;;;4971802;28;117463;-86
2020/12/10 00:05:37;;;;;;;;;;;6.60;77.30;;;;;;4970863;28;120256;-87
2020/12/10 00:08:03;;;;;;;;;;;6.60;77.40;;;;;;4987686;28;117397;-87
2020/12/10 00:10:28;;;;;;;;;;;6.60;77.40;;;;;;4971966;28;117632;-87
2020/12/10 00:12:54;;;;;;;;;;;6.60;77.30;;;;;;4971807;28;117732;-87
2020/12/10 00:15:19;;;;;;;;;;;6.60;77.20;;;;;;4970913;28;120023;-87
2020/12/10 00:17:45;;;;;;;;;;;6.60;77.20;;;;;;4970764;28;120383;-87
2020/12/10 00:20:10;;;;;;;;;;;6.60;77.20;;;;;;4971941;28;117551;-87
2020/12/10 00:22:36;;;;;;;;;;;6.60;77.20;;;;;;4972115;28;117323;-87
2020/12/10 00:25:02;;;;;;;;;;;6.60;77.20;;;;;;4971010;28;120336;-87
2020/12/10 00:27:28;;;;;;;;;;;6.60;77.20;;;;;;4970885;28;119224;-87
2020/12/10 00:29:57;;;;;;;;;;;6.60;77.20;;;;;;4972483;28;117911;-87
2020/12/10 00:32:23;;;;;;;;;;;6.60;77.10;;;;;;4972903;28;117487;-87
2020/12/10 00:34:48;;;;;;;;;;;6.60;77.10;;;;;;4970741;28;121028;-87
2020/12/10 00:37:14;;;;;;;;;;;6.60;77.10;;;;;;4970912;28;119197;-87
2020/12/10 00:39:39;;;;;;;;;;;6.60;77.10;;;;;;4971810;28;117476;-87
2020/12/10 00:42:05;;;;;;;;;;;6.60;77.00;;;;;;4971744;28;117873;-87
2020/12/10 00:44:30;;;;;;;;;;;6.60;77.00;;;;;;4970596;28;119682;-87
2020/12/10 00:46:56;;;;;;;;;;;6.60;77.00;;;;;;4970734;28;119158;-87
2020/12/10 00:49:21;;;;;;;;;;;6.60;77.00;;;;;;4971421;28;117510;-87
2020/12/10 00:51:47;;;;;;;;;;;6.60;77.00;;;;;;4988623;28;117321;-86
2020/12/10 00:54:13;;;;;;;;;;;6.60;77.00;;;;;;4970453;28;122826;-86
2020/12/10 00:56:38;;;;;;;;;;;6.60;76.90;;;;;;4970176;28;119502;-87
2020/12/10 00:59:04;;;;;;;;;;;6.60;76.90;;;;;;4970714;28;117519;-87
2020/12/10 01:01:30;;;;;;;;;;;6.60;77.00;;;;;;4970679;28;117597;-87
2020/12/10 01:03:55;;;;;;;;;;;6.60;77.00;;;;;;4969460;28;121337;-87
2020/12/10 01:06:21;;;;;;;;;;;6.60;77.00;;;;;;4969522;28;119050;-86
2020/12/10 01:08:46;;;;;;;;;;;6.60;76.90;;;;;;4969756;28;117476;-87
2020/12/10 01:11:12;;;;;;;;;;;6.60;76.90;;;;;;4970661;28;117852;-87
2020/12/10 01:13:37;;;;;;;;;;;6.60;76.90;;;;;;4969317;28;121444;-86
2020/12/10 01:16:03;;;;;;;;;;;6.60;76.90;;;;;;4969236;28;119896;-86
2020/12/10 01:18:28;;;;;;;;;;;6.60;76.90;;;;;;4970596;28;117496;-87
2020/12/10 01:20:53;;;;;;;;;;;6.60;76.80;;;;;;4970514;28;117405;-87
2020/12/10 01:23:19;;;;;;;;;;;6.60;76.80;;;;;;4969310;28;121308;-87
2020/12/10 01:25:44;;;;;;;;;;;6.60;76.80;;;;;;4969146;28;121177;-86
2020/12/10 01:28:10;;;;;;;;;;;6.60;76.80;;;;;;4970123;28;117251;-86
2020/12/10 01:30:35;;;;;;;;;;;6.60;76.90;;;;;;4970413;28;117353;-86
2020/12/10 01:33:01;;;;;;;;;;;6.60;76.80;;;;;;4968989;28;121795;-86
2020/12/10 01:35:26;;;;;;;;;;;6.60;76.80;;;;;;4968543;28;120356;-87
2020/12/10 01:37:52;;;;;;;;;;;6.60;76.80;;;;;;4969744;28;117329;-87
2020/12/10 01:40:17;;;;;;;;;;;6.60;76.80;;;;;;4970217;28;117246;-87
2020/12/10 01:42:43;;;;;;;;;;;6.60;76.80;;;;;;4986194;28;118546;-87
2020/12/10 01:45:08;;;;;;;;;;;6.60;76.80;;;;;;4969011;28;119632;-86
2020/12/10 01:47:34;;;;;;;;;;;6.60;76.70;;;;;;4970259;28;117396;-87
2020/12/10 01:50:00;;;;;;;;;;;6.60;76.70;;;;;;4970235;28;117768;-87
2020/12/10 01:52:25;;;;;;;;;;;6.60;76.80;;;;;;4968753;28;119713;-87
2020/12/10 01:54:50;;;;;;;;;;;6.60;76.80;;;;;;4968742;28;120137;-87
2020/12/10 01:57:16;;;;;;;;;;;6.60;76.80;;;;;;4969944;28;117839;-87
2020/12/10 01:59:42;;;;;;;;;;;6.60;76.80;;;;;;4986688;28;117770;-87
2020/12/10 02:02:07;;;;;;;;;;;6.60;76.70;;;;;;4968531;28;120071;-87
2020/12/10 02:04:34;;;;;;;;;;;6.60;76.70;;;;;;4968655;28;119093;-87
2020/12/10 02:07:00;;;;;;;;;;;6.60;76.80;;;;;;4969734;28;117556;-86
2020/12/10 02:09:25;;;;;;;;;;;6.60;76.70;;;;;;4969695;28;117241;-86
2020/12/10 02:11:51;;;;;;;;;;;6.60;76.70;;;;;;4968765;28;121157;-86
2020/12/10 02:14:17;;;;;;;;;;;6.60;76.70;;;;;;4968330;28;119121;-87
2020/12/10 02:16:42;;;;;;;;;;;6.60;76.70;;;;;;4986350;28;117369;-87
2020/12/10 02:19:08;;;;;;;;;;;6.60;76.70;;;;;;4968219;28;117403;-87
2020/12/10 02:21:34;;;;;;;;;;;6.60;76.60;;;;;;4968500;28;119979;-87
2020/12/10 02:23:59;;;;;;;;;;;6.60;76.60;;;;;;4968228;28;119089;-87
2020/12/10 02:26:25;;;;;;;;;;;6.60;76.70;;;;;;4969746;28;117566;-87
2020/12/10 02:28:51;;;;;;;;;;;6.60;76.60;;;;;;4969503;28;117903;-87
2020/12/10 02:31:23;;;;;;;;;;;6.60;76.60;;;;;;4968597;28;120026;-87
2020/12/10 02:33:48;;;;;;;;;;;6.60;76.50;;;;;;4968466;28;119546;-86
2020/12/10 02:36:14;;;;;;;;;;;6.60;76.60;;;;;;4969707;28;117680;-86
2020/12/10 02:38:39;;;;;;;;;;;6.60;76.60;;;;;;4969244;28;117839;-87
2020/12/10 02:41:05;;;;;;;;;;;6.60;76.60;;;;;;4968321;28;120520;-87
2020/12/10 02:43:30;;;;;;;;;;;6.60;76.60;;;;;;4985156;28;117851;-87
2020/12/10 02:45:56;;;;;;;;;;;6.60;76.60;;;;;;4969467;28;117467;-87
2020/12/10 02:48:21;;;;;;;;;;;6.60;76.60;;;;;;4986328;28;117782;-87
2020/12/10 02:50:47;;;;;;;;;;;6.60;76.60;;;;;;4968580;28;121290;-87
2020/12/10 02:53:12;;;;;;;;;;;6.60;76.60;;;;;;4968500;28;119715;-87
2020/12/10 02:55:38;;;;;;;;;;;6.60;77.20;;;;;;4969898;28;117507;-87
2020/12/10 02:58:03;;;;;;;;;;;6.60;76.60;;;;;;4969835;28;117570;-87
2020/12/10 03:00:29;;;;;;;;;;;6.60;76.50;;;;;;4985548;28;118591;-87
2020/12/10 03:02:54;;;;;;;;;;;6.60;76.50;;;;;;4969067;28;120231;-87
2020/12/10 03:05:20;;;;;;;;;;;6.60;76.50;;;;;;4986889;28;117425;-87
2020/12/10 03:07:45;;;;;;;;;;;6.60;76.50;;;;;;4969583;28;117772;-87
2020/12/10 03:10:11;;;;;;;;;;;6.60;76.50;;;;;;4985101;28;118337;-87
2020/12/10 03:12:36;;;;;;;;;;;6.60;76.40;;;;;;4968404;28;119106;-87
2020/12/10 03:15:02;;;;;;;;;;;6.60;76.40;;;;;;4986027;28;117342;-87
2020/12/10 03:17:27;;;;;;;;;;;6.60;76.40;;;;;;4969254;28;117364;-87
2020/12/10 03:19:53;;;;;;;;;;;6.60;76.40;;;;;;4968139;28;122477;-87
2020/12/10 03:22:18;;;;;;;;;;;6.60;76.40;;;;;;4968038;28;119516;-87
2020/12/10 03:24:44;;;;;;;;;;;6.60;76.40;;;;;;4969341;28;117610;-87
2020/12/10 03:27:10;;;;;;;;;;;6.60;76.30;;;;;;4985769;28;117484;-87
2020/12/10 03:29:35;;;;;;;;;;;6.60;76.30;;;;;;4968175;28;120314;-87
2020/12/10 03:32:01;;;;;;;;;;;6.60;76.40;;;;;;4970880;28;118830;-87
2020/12/10 03:34:27;;;;;;;;;;;6.60;76.50;;;;;;4971952;28;117596;-87
2020/12/10 03:36:53;;;;;;;;;;;6.60;76.40;;;;;;4989256;28;117655;-87
2020/12/10 03:39:19;;;;;;;;;;;6.60;76.40;;;;;;4970883;28;120382;-87
2020/12/10 03:41:45;;;;;;;;;;;6.60;76.40;;;;;;4969882;28;119266;-87
2020/12/10 03:44:11;;;;;;;;;;;6.60;76.50;;;;;;4970797;28;117308;-86
2020/12/10 03:46:37;;;;;;;;;;;6.60;76.50;;;;;;4971048;28;117413;-86
2020/12/10 03:49:03;;;;;;;;;;;6.50;76.30;;;;;;4969387;28;120451;-86
2020/12/10 03:51:28;;;;;;;;;;;6.60;76.40;;;;;;4969060;28;119508;-86
2020/12/10 03:53:56;;;;;;;;;;;6.60;76.40;;;;;;5006390;22;117883;-88
2020/12/10 03:56:21;;;;;;;;;;;6.60;76.40;;;;;;4990583;28;117947;-88
2020/12/10 03:58:47;;;;;;;;;;;6.60;76.40;;;;;;4989435;28;121216;-88
2020/12/10 04:01:12;;;;;;;;;;;6.50;76.30;;;;;;4989259;28;120586;-88
2020/12/10 04:03:38;;;;;;;;;;;6.60;76.30;;;;;;5006909;28;117586;-88
2020/12/10 04:06:03;;;;;;;;;;;6.50;76.30;;;;;;4973765;28;117401;-88
2020/12/10 04:08:29;;;;;;;;;;;6.60;76.40;;;;;;4972964;28;119662;-88
2020/12/10 04:10:54;;;;;;;;;;;6.60;76.40;;;;;;4972587;28;120185;-88
2020/12/10 04:13:20;;;;;;;;;;;6.60;76.40;;;;;;4973157;28;117745;-88
2020/12/10 04:15:45;;;;;;;;;;;6.60;76.30;;;;;;4973353;28;117340;-88
2020/12/10 04:18:11;;;;;;;;;;;6.60;76.30;;;;;;4972722;28;121250;-88
2020/12/10 04:20:36;;;;;;;;;;;6.60;76.30;;;;;;4972285;28;119670;-88
2020/12/10 04:23:02;;;;;;;;;;;6.60;76.30;;;;;;4973011;28;117674;-88
2020/12/10 04:25:27;;;;;;;;;;;6.60;76.30;;;;;;4973927;28;118285;-88
2020/12/10 04:27:53;;;;;;;;;;;6.60;76.20;;;;;;4972205;28;120742;-88
2020/12/10 04:30:21;;;;;;;;;;;6.60;76.20;;;;;;4989336;28;117371;-88
2020/12/10 04:32:47;;;;;;;;;;;6.60;76.30;;;;;;4990295;28;117779;-88
2020/12/10 04:35:12;;;;;;;;;;;6.60;76.30;;;;;;4973340;28;117845;-89
2020/12/10 04:37:38;;;;;;;;;;;6.60;76.30;;;;;;4972159;28;121260;-88
2020/12/10 04:40:03;;;;;;;;;;;6.60;76.30;;;;;;4971591;28;120955;-88
2020/12/10 04:42:29;;;;;;;;;;;6.60;76.30;;;;;;4971878;28;117384;-88
2020/12/10 04:44:54;;;;;;;;;;;6.60;76.30;;;;;;4973223;28;117435;-88
2020/12/10 04:47:20;;;;;;;;;;;6.60;76.30;;;;;;4971974;28;121001;-89
2020/12/10 04:49:45;;;;;;;;;;;6.60;76.30;;;;;;4971813;28;120178;-88
2020/12/10 04:52:11;;;;;;;;;;;6.60;76.30;;;;;;4973366;28;117399;-88
2020/12/10 04:54:36;;;;;;;;;;;6.50;76.20;;;;;;4973326;28;117753;-88
2020/12/10 04:57:02;;;;;;;;;;;6.60;76.30;;;;;;4989238;28;119293;-89
2020/12/10 04:59:28;;;;;;;;;;;6.50;76.50;;;;;;4972455;28;119275;-88
2020/12/10 05:01:56;;;;;;;;;;;6.60;76.20;;;;;;4973047;28;117475;-88
2020/12/10 05:04:22;;;;;;;;;;;6.60;76.30;;;;;;4972877;28;118320;-88
2020/12/10 05:06:48;;;;;;;;;;;6.60;76.30;;;;;;4972880;28;121400;-88
2020/12/10 05:09:14;;;;;;;;;;;6.60;76.30;;;;;;4972885;28;120943;-89
2020/12/10 05:11:39;;;;;;;;;;;6.50;76.20;;;;;;4990711;28;117278;-88
2020/12/10 05:14:04;;;;;;;;;;;6.60;76.20;;;;;;4973720;28;117426;-88
2020/12/10 05:16:30;;;;;;;;;;;6.60;76.30;;;;;;4973073;28;120199;-88
2020/12/10 05:18:55;;;;;;;;;;;6.60;76.30;;;;;;4972343;28;120654;-88
2020/12/10 05:21:21;;;;;;;;;;;6.60;76.30;;;;;;4973442;28;117380;-88
2020/12/10 05:23:47;;;;;;;;;;;6.60;76.30;;;;;;4972905;28;117821;-88
2020/12/10 05:26:12;;;;;;;;;;;6.60;76.20;;;;;;4972348;28;119930;-89
2020/12/10 05:28:48;;;;;;;;;;;6.60;76.90;;;;;;4971629;28;119430;-88
2020/12/10 05:31:17;;;;;;;;;;;6.50;76.20;;;;;;4972971;28;117628;-89
2020/12/10 05:33:52;;;;;;;;;;;6.50;76.20;;;;;;4972827;28;117862;-88
2020/12/10 05:36:18;;;;;;;;;;;6.60;76.30;;;;;;4988724;28;121352;-89
2020/12/10 05:39:04;;;;;;;;;;;6.60;76.30;;;;;;4971628;28;120586;-88
2020/12/10 05:41:30;;;;;;;;;;;6.50;76.20;;;;;;4972400;28;117323;-88
2020/12/10 05:43:55;;;;;;;;;;;6.60;76.20;;;;;;4972481;28;117731;-88
2020/12/10 05:46:24;;;;;;;;;;;6.60;76.30;;;;;;4971360;28;119796;-89
2020/12/10 05:48:50;;;;;;;;;;;6.60;76.20;;;;;;4971369;28;121049;-88
2020/12/10 05:51:16;;;;;;;;;;;6.60;76.20;;;;;;4971921;28;117509;-88
2020/12/10 05:53:42;;;;;;;;;;;6.50;76.20;;;;;;4970860;28;117563;-89
2020/12/10 05:56:11;;;;;;;;;;;6.50;76.20;;;;;;4971074;28;120307;-88
2020/12/10 05:58:47;;;;;;;;;;;6.50;76.20;;;;;;4971115;28;119738;-89
2020/12/10 06:01:24;;;;;;;;;;;6.50;76.20;;;;;;4972065;28;117279;-88
2020/12/10 06:03:50;;;;;;;;;;;6.50;76.10;;;;;;4988597;28;117826;-88
2020/12/10 06:06:15;;;;;;;;;;;6.60;76.20;;;;;;4970677;28;120330;-88
2020/12/10 06:08:41;;;;;;;;;;;6.60;76.20;;;;;;4987364;28;118571;-88
2020/12/10 06:11:06;;;;;;;;;;;6.60;76.20;;;;;;4971668;28;117923;-88
2020/12/10 06:13:32;;;;;;;;;;;6.60;76.20;;;;;;4971692;28;117486;-88
2020/12/10 06:16:12;;;;;;;;;;;6.50;76.10;;;;;;4970846;28;120272;-89
2020/12/10 06:18:52;;;;;;;;;;;6.60;76.10;;;;;;4970140;28;117744;-88
2020/12/10 06:21:31;;;;;;;;;;;6.50;76.10;;;;;;4971514;28;117853;-88
2020/12/10 06:23:56;;;;;;;;;;;6.50;76.10;;;;;;4988593;28;117455;-88
2020/12/10 06:26:25;;;;;;;;;;;6.50;76.10;;;;;;4970441;28;121805;-88
2020/12/10 06:29:09;;;;;;;;;;;6.50;76.10;;;;;;4986977;28;120401;-88
2020/12/10 06:31:35;;;;;;;;;;;6.50;76.00;;;;;;4988097;28;117558;-88
2020/12/10 06:34:00;;;;;;;;;;;6.50;76.00;;;;;;4971420;28;117410;-88
2020/12/10 06:36:26;;;;;;;;;;;6.50;76.10;;;;;;4970729;28;121344;-88
2020/12/10 06:38:52;;;;;;;;;;;6.50;76.00;;;;;;4970292;28;121483;-88
2020/12/10 06:41:18;;;;;;;;;;;6.50;76.00;;;;;;4971019;28;117514;-88
2020/12/10 06:43:43;;;;;;;;;;;6.50;76.00;;;;;;4970641;28;117812;-88
2020/12/10 06:46:09;;;;;;;;;;;6.50;76.00;;;;;;4970405;28;120206;-88
2020/12/10 06:48:38;;;;;;;;;;;6.50;76.00;;;;;;4970305;28;119100;-88
2020/12/10 06:51:10;;;;;;;;;;;6.50;76.00;;;;;;4987623;28;117515;-88
2020/12/10 06:53:36;;;;;;;;;;;6.50;76.00;;;;;;4970742;28;117441;-88
2020/12/10 06:56:03;;;;;;;;;;;6.60;76.00;;;;;;4970069;28;120134;-88
2020/12/10 06:58:36;;;;;;;;;;;6.50;76.00;;;;;;4970422;28;120315;-88
2020/12/10 07:01:20;;;;;;;;;;;6.50;76.00;;;;;;5005976;28;117483;-88
2020/12/10 07:03:46;;;;;;;;;;;6.50;76.00;;;;;;4987712;28;117890;-87
2020/12/10 07:06:18;;;;;;;;;;;6.50;76.00;;;;;;4969761;28;121586;-88
2020/12/10 07:09:00;;;;;;;;;;;6.50;76.00;;;;;;4969720;28;119972;-88
2020/12/10 07:11:29;;;;;;;;;;;6.50;76.00;;;;;;4970926;28;117577;-88
2020/12/10 07:13:55;;;;;;;;;;;6.50;76.00;;;;;;4970814;28;117835;-88
2020/12/10 07:16:22;;;;;;;;;;;6.50;76.00;;;;;;4969952;28;121187;-88
2020/12/10 07:18:47;;;;;;;;;;;6.50;76.00;;;;;;4969843;28;119754;-88
2020/12/10 07:21:13;;;;;;;;;;;6.50;76.00;;;;;;4970834;28;117414;-88
2020/12/10 07:23:38;;;;;;;;;;;6.50;76.00;;;;;;4970883;28;117847;-88
2020/12/10 07:26:04;;;;;;;;;;;6.50;76.00;;;;;;4986935;28;124325;-88
2020/12/10 07:28:29;;;;;;;;;;;6.50;76.00;;;;;;4970204;28;120038;-88
2020/12/10 07:30:55;;;;;;;;;;;6.50;75.90;;;;;;4971110;28;117820;-88
2020/12/10 07:33:22;;;;;;;;;;;6.50;75.90;;;;;;4970909;28;117430;-88
2020/12/10 07:35:47;;;;;;;;;;;6.50;75.90;;;;;;4970729;28;121215;-88
2020/12/10 07:38:13;;;;;;;;;;;6.50;75.90;;;;;;4970345;28;119395;-88
2020/12/10 07:40:39;;;;;;;;;;;6.50;76.50;;;;;;4971707;28;117225;-88
2020/12/10 07:43:08;;;;;;;;;;;6.50;75.90;;;;;;4971307;28;117396;-88
2020/12/10 07:45:34;;;;;;;;;;;6.50;75.90;;;;;;4970278;28;122055;-88
2020/12/10 07:48:00;;;;;;;;;;;6.50;75.90;;;;;;4971112;28;120444;-88
2020/12/10 07:50:26;;;;;;;;;;;6.50;75.90;;;;;;4971863;28;117751;-88
2020/12/10 07:52:55;;;;;;;;;;;6.50;75.90;;;;;;4970873;28;117735;-88
2020/12/10 07:55:22;;;;;;;;;;;6.50;75.90;;;;;;4970345;28;120254;-88
2020/12/10 07:57:57;;;;;;;;;;;6.50;75.90;;;;;;4985962;28;120595;-88
2020/12/10 08:00:23;;;;;;;;;;;6.50;75.90;;;;;;4987375;28;117241;-88
2020/12/10 08:03:04;;;;;;;;;;;6.50;75.90;;;;;;4970928;28;117829;-88
2020/12/10 08:05:30;;;;;;;;;;;6.50;75.90;;;;;;4986479;28;120835;-88
2020/12/10 08:07:55;;;;;;;;;;;6.50;75.90;;;;;;4969851;28;119301;-88
2020/12/10 08:10:25;;;;;;;;;;;6.50;75.90;;;;;;4970398;28;117316;-88
2020/12/10 08:13:09;;;;;;;;;;;6.50;75.90;;;;;;4987639;28;117488;-88
2020/12/10 08:15:35;;;;;;;;;;;6.50;75.90;;;;;;4986463;28;122330;-88
2020/12/10 08:18:01;;;;;;;;;;;6.50;75.90;;;;;;4970924;28;120191;-88
2020/12/10 08:20:47;;;;;;;;;;;6.60;76.00;;;;;;4973286;28;117524;-88
2020/12/10 08:23:13;;;;;;;;;;;6.50;75.90;;;;;;4988676;28;118031;-88
2020/12/10 08:25:39;;;;;;;;;;;6.60;75.90;;;;;;4972367;28;121057;-88
2020/12/10 08:28:08;;;;;;;;;;;6.50;75.90;;;;;;4972313;28;118933;-88
2020/12/10 08:30:34;;;;;;;;;;;6.50;75.90;;;;;;4973596;28;117623;-88
2020/12/10 08:33:00;;;;;;;;;;;6.50;75.90;;;;;;4973293;28;117594;-87
2020/12/10 08:35:39;;;;;;;;;;;6.50;75.90;;;;;;4972259;28;120625;-87
2020/12/10 08:38:04;;;;;;;;;;;6.50;75.90;;;;;;4989109;28;117304;-87
2020/12/10 08:40:30;;;;;;;;;;;6.50;75.90;;;;;;4973365;28;117511;-87
2020/12/10 08:42:55;;;;;;;;;;;6.60;75.90;;;;;;4973130;28;117941;-87
2020/12/10 08:45:31;;;;;;;;;;;6.50;75.90;;;;;;4972033;28;121423;-87
2020/12/10 08:47:57;;;;;;;;;;;6.60;75.90;;;;;;4971436;28;120842;-88
2020/12/10 08:50:23;;;;;;;;;;;6.50;75.80;;;;;;4972889;28;117525;-88
2020/12/10 08:52:52;;;;;;;;;;;6.50;75.90;;;;;;4972717;28;117863;-88
2020/12/10 08:55:18;;;;;;;;;;;6.50;75.90;;;;;;4972293;28;119320;-88
2020/12/10 08:57:47;;;;;;;;;;;6.50;75.90;;;;;;4971725;28;118079;-88
2020/12/10 09:00:13;;;;;;;;;;;6.50;75.90;;;;;;4972836;28;117539;-88
2020/12/10 09:02:39;;;;;;;;;;;6.50;76.50;;;;;;4972554;28;117892;-88
2020/12/10 09:05:04;;;;;;;;;;;6.60;75.90;;;;;;4971579;28;118442;-88
2020/12/10 09:07:29;;;;;;;;;;;6.50;75.80;;;;;;4971579;28;119243;-88
2020/12/10 09:09:55;;;;;;;;;;;6.50;75.90;;;;;;4972318;28;117798;-88
2020/12/10 09:12:21;;;;;;;;;;;6.50;75.90;;;;;;4971997;28;117531;-88
2020/12/10 09:14:46;;;;;;;;;;;6.50;75.90;;;;;;4971448;28;120219;-88
2020/12/10 09:17:12;;;;;;;;;;;6.50;75.90;;;;;;4971559;28;120112;-88
2020/12/10 09:19:37;;;;;;;;;;;6.50;76.50;;;;;;4972257;28;117370;-87
2020/12/10 09:22:03;;;;;;;;;;;6.50;75.90;;;;;;4972658;28;118253;-87
2020/12/10 09:24:29;;;;;;;;;;;6.50;75.90;;;;;;4971216;28;117343;-88
2020/12/10 09:26:54;;;;;;;;;;;6.60;75.90;;;;;;4971130;28;120326;-88
2020/12/10 09:29:20;;;;;;;;;;;6.50;75.90;;;;;;4972309;28;117549;-88
2020/12/10 09:31:45;;;;;;;;;;;6.50;75.90;;;;;;4972606;28;117871;-88
2020/12/10 09:34:11;;;;;;;;;;;6.50;75.90;;;;;;4970948;28;121369;-88
2020/12/10 09:36:37;;;;;;;;;;;6.50;75.90;;;;;;4970754;28;119401;-88
2020/12/10 09:39:02;;;;;;;;;;;6.50;75.90;;;;;;4972163;28;117516;-88
2020/12/10 09:41:28;;;;;;;;;;;6.50;75.90;;;;;;4972199;28;117908;-88
2020/12/10 09:43:54;;;;;;;;;;;6.50;75.80;;;;;;4970839;28;118404;-88
2020/12/10 09:46:19;;;;;;;;;;;6.60;75.90;;;;;;4971220;28;119172;-88
2020/12/10 09:48:45;;;;;;;;;;;6.50;75.90;;;;;;4972319;28;117474;-88
2020/12/10 09:51:11;;;;;;;;;;;6.50;75.80;;;;;;4972281;28;117932;-88
2020/12/10 09:54:02;;;;;;;;;;;6.50;75.80;;;;;;4970642;28;120797;-88
2020/12/10 09:57:08;;;;;;;;;;;6.50;75.90;;;;;;5009378;22;117555;-86
2020/12/10 09:59:17;;;;;;;;;;;6.50;75.90;;;;;;4984198;28;117392;-85
2020/12/10 10:01:46;;;;;;;;;;;6.50;75.90;;;;;;4968286;28;117737;-85
2020/12/10 10:04:11;;;;;;;;;;;6.60;75.90;;;;;;4984414;28;117650;-85
2020/12/10 10:06:37;;;;;;;;;;;6.60;75.90;;;;;;4967416;28;120825;-86
2020/12/10 10:09:04;;;;;;;;;;;6.50;75.80;;;;;;4985246;28;117587;-86
2020/12/10 10:11:30;;;;;;;;;;;6.50;75.90;;;;;;4985734;28;117755;-86
2020/12/10 10:13:55;;;;;;;;;;;6.50;75.90;;;;;;4984404;28;117551;-86
2020/12/10 10:16:26;;;;;;;;;;;6.50;75.90;;;;;;4984056;28;120706;-86
2020/12/10 10:18:51;;;;;;;;;;;6.50;75.90;;;;;;4968718;28;117447;-86
2020/12/10 10:21:20;;;;;;;;;;;6.50;75.90;;;;;;4985283;28;117850;-86
2020/12/10 10:23:45;;;;;;;;;;;6.50;75.90;;;;;;4984045;28;120327;-86
2020/12/10 10:26:11;;;;;;;;;;;6.50;75.80;;;;;;4983574;28;120594;-86
2020/12/10 10:28:36;;;;;;;;;;;6.50;75.90;;;;;;4985528;28;117489;-86
2020/12/10 10:31:02;;;;;;;;;;;6.50;75.80;;;;;;4985308;28;117922;-86
2020/12/10 10:33:27;;;;;;;;;;;6.50;75.80;;;;;;4984057;28;121750;-86
2020/12/10 10:35:53;;;;;;;;;;;6.50;75.80;;;;;;4983503;28;121994;-86
2020/12/10 10:38:20;;;;;;;;;;;6.50;75.80;;;;;;4984835;28;117992;-86
2020/12/10 10:40:45;;;;;;;;;;;6.50;75.80;;;;;;4967577;28;117518;-86
2020/12/10 10:43:11;;;;;;;;;;;6.50;75.70;;;;;;4966971;28;127219;-86
2020/12/10 10:45:36;;;;;;;;;;;6.50;75.80;;;;;;4983704;28;120271;-86
2020/12/10 10:48:02;;;;;;;;;;;6.60;75.80;;;;;;4968037;28;117403;-86
2020/12/10 10:50:27;;;;;;;;;;;6.50;75.80;;;;;;4984428;28;117465;-86
2020/12/10 10:52:53;;;;;;;;;;;6.50;75.70;;;;;;4983499;28;121669;-86
2020/12/10 10:55:18;;;;;;;;;;;6.50;75.80;;;;;;4966175;28;124495;-86
2020/12/10 10:57:44;;;;;;;;;;;6.50;75.70;;;;;;4984785;28;117448;-86
2020/12/10 11:00:09;;;;;;;;;;;6.50;75.70;;;;;;4984882;28;117242;-86
2020/12/10 11:02:36;;;;;;;;;;;6.50;75.70;;;;;;4966218;28;139988;-86
2020/12/10 11:05:02;;;;;;;;;;;6.50;75.70;;;;;;4983315;28;120423;-85
2020/12/10 11:07:27;;;;;;;;;;;6.50;75.70;;;;;;4968069;28;117463;-86
2020/12/10 11:09:53;;;;;;;;;;;6.50;75.70;;;;;;4967902;28;117309;-86
2020/12/10 11:12:18;;;;;;;;;;;6.50;75.70;;;;;;4983363;28;122942;-86
2020/12/10 11:14:44;;;;;;;;;;;6.50;75.70;;;;;;4982785;28;119337;-86
2020/12/10 11:17:10;;;;;;;;;;;6.50;75.70;;;;;;4967480;28;117787;-86
2020/12/10 11:19:35;;;;;;;;;;;6.50;75.70;;;;;;4984465;28;117865;-86
2020/12/10 11:22:01;;;;;;;;;;;6.50;75.70;;;;;;4983266;28;120553;-87
2020/12/10 11:24:26;;;;;;;;;;;6.50;75.70;;;;;;4983217;28;119342;-86
2020/12/10 11:26:52;;;;;;;;;;;6.50;75.60;;;;;;4984418;28;117741;-86
2020/12/10 11:29:18;;;;;;;;;;;6.50;75.60;;;;;;4968203;28;117855;-86
2020/12/10 11:31:43;;;;;;;;;;;6.50;75.50;;;;;;4983539;28;119717;-86
2020/12/10 11:34:09;;;;;;;;;;;6.50;75.50;;;;;;4983541;28;119326;-86
2020/12/10 11:36:34;;;;;;;;;;;6.50;75.50;;;;;;4984410;28;117238;-85
2020/12/10 11:39:00;;;;;;;;;;;6.60;75.60;;;;;;4984348;28;117938;-85
2020/12/10 11:41:25;;;;;;;;;;;6.60;75.60;;;;;;4966973;28;122068;-85
2020/12/10 11:43:51;;;;;;;;;;;6.50;75.60;;;;;;4966748;28;119304;-85
2020/12/10 11:46:17;;;;;;;;;;;6.50;75.50;;;;;;4967515;28;117574;-88
2020/12/10 11:48:43;;;;;;;;;;;6.50;75.60;;;;;;4984212;28;117365;-88
2020/12/10 11:51:09;;;;;;;;;;;6.50;75.50;;;;;;4967041;28;117715;-89
2020/12/10 11:53:35;;;;;;;;;;;6.50;75.50;;;;;;4969953;28;119502;-87
2020/12/10 11:56:01;;;;;;;;;;;6.50;75.50;;;;;;4987072;28;117769;-87
2020/12/10 11:58:27;;;;;;;;;;;6.50;75.50;;;;;;4971005;28;117362;-88
2020/12/10 12:00:52;;;;;;;;;;;6.50;75.60;;;;;;4986139;28;120060;-87
2020/12/10 12:03:17;;;;;;;;;;;6.50;75.60;;;;;;4985586;28;120501;-88
2020/12/10 12:05:43;;;;;;;;;;;6.50;75.50;;;;;;4986689;28;117552;-88
2020/12/10 12:08:09;;;;;;;;;;;6.50;75.50;;;;;;4987661;28;117833;-88
2020/12/10 12:10:34;;;;;;;;;;;6.50;75.60;;;;;;4986241;28;119932;-89
2020/12/10 12:13:01;;;;;;;;;;;6.50;76.10;;;;;;4986337;28;117340;-88
2020/12/10 12:15:27;;;;;;;;;;;6.50;75.40;;;;;;4970344;28;117448;-88
2020/12/10 12:17:54;;;;;;;;;;;6.50;75.50;;;;;;4970541;28;117818;-88
2020/12/10 12:20:23;;;;;;;;;;;6.50;75.50;;;;;;4986118;28;121213;-87
2020/12/10 12:22:49;;;;;;;;;;;6.50;75.50;;;;;;4986432;28;120295;-87
2020/12/10 12:25:14;;;;;;;;;;;6.60;75.50;;;;;;4986565;28;117526;-87
2020/12/10 12:27:40;;;;;;;;;;;6.50;75.50;;;;;;4986485;28;117359;-87
2020/12/10 12:30:05;;;;;;;;;;;6.50;75.50;;;;;;4985748;28;120203;-87
2020/12/10 12:32:31;;;;;;;;;;;6.50;75.50;;;;;;4985624;28;120424;-87
2020/12/10 12:34:57;;;;;;;;;;;6.50;75.50;;;;;;4986727;28;117358;-87
2020/12/10 12:37:22;;;;;;;;;;;6.50;75.50;;;;;;4970273;28;117856;-87
2020/12/10 12:39:48;;;;;;;;;;;6.50;75.50;;;;;;4985579;28;121776;-88
2020/12/10 12:42:14;;;;;;;;;;;6.50;75.50;;;;;;4969310;28;117075;-88
2020/12/10 12:44:39;;;;;;;;;;;6.50;75.40;;;;;;4986552;28;117451;-87
2020/12/10 12:47:08;;;;;;;;;;;6.50;75.50;;;;;;4969878;28;117767;-86
2020/12/10 12:49:34;;;;;;;;;;;6.50;75.50;;;;;;4986049;28;117564;-86
2020/12/10 12:52:00;;;;;;;;;;;6.60;75.50;;;;;;4985580;28;117443;-86
2020/12/10 12:54:25;;;;;;;;;;;6.50;75.50;;;;;;4969717;28;117593;-86
2020/12/10 12:56:51;;;;;;;;;;;6.60;75.50;;;;;;4985913;28;118306;-86
2020/12/10 12:59:17;;;;;;;;;;;6.50;75.50;;;;;;4985344;28;120516;-87
2020/12/10 13:01:42;;;;;;;;;;;6.50;75.50;;;;;;4968862;28;119920;-87
2020/12/10 13:04:13;;;;;;;;;;;6.50;75.50;;;;;;4985516;28;117579;-90
2020/12/10 13:06:59;;;;;;;;;;;6.50;75.50;;;;;;4984235;28;117876;-90
2020/12/10 13:09:33;;;;;;;;;;;6.50;75.60;;;;;;5002102;28;120574;-90
2020/12/10 13:11:58;;;;;;;;;;;6.50;75.60;;;;;;5001614;28;119313;-90
2020/12/10 13:14:24;;;;;;;;;;;6.50;75.50;;;;;;4985848;28;117533;-90
2020/12/10 13:16:49;;;;;;;;;;;6.50;75.50;;;;;;4968835;28;117475;-90
2020/12/10 13:19:15;;;;;;;;;;;6.50;75.40;;;;;;4984834;28;121550;-90
2020/12/10 13:21:41;;;;;;;;;;;6.50;75.30;;;;;;4984897;28;119312;-90
2020/12/10 13:24:06;;;;;;;;;;;6.50;75.30;;;;;;4985822;28;117451;-90
2020/12/10 13:26:32;;;;;;;;;;;6.50;75.20;;;;;;4985863;28;117381;-90
2020/12/10 13:28:58;;;;;;;;;;;6.50;75.10;;;;;;4985102;28;117637;-90
2020/12/10 13:31:27;;;;;;;;;;;6.50;75.20;;;;;;4968452;28;119476;-90
2020/12/10 13:33:53;;;;;;;;;;;6.50;75.20;;;;;;4969426;28;117480;-90
2020/12/10 13:36:18;;;;;;;;;;;6.50;75.20;;;;;;4985857;28;117808;-90
2020/12/10 13:38:44;;;;;;;;;;;6.50;75.20;;;;;;4984877;28;121088;-90
2020/12/10 13:41:10;;;;;;;;;;;6.50;75.10;;;;;;4984462;28;119972;-90
2020/12/10 13:43:35;;;;;;;;;;;6.50;75.10;;;;;;4985758;28;117673;-90
2020/12/10 13:46:01;;;;;;;;;;;6.50;75.10;;;;;;4985801;28;117853;-90
2020/12/10 13:48:26;;;;;;;;;;;6.50;75.20;;;;;;4984977;28;121301;-90
2020/12/10 13:50:52;;;;;;;;;;;6.50;75.10;;;;;;4984913;28;119357;-90
2020/12/10 13:53:17;;;;;;;;;;;6.50;75.10;;;;;;4985927;28;117512;-90
2020/12/10 13:55:43;;;;;;;;;;;6.50;75.10;;;;;;4985506;28;117345;-91
2020/12/10 13:58:09;;;;;;;;;;;6.50;75.10;;;;;;4985225;28;121175;-90
2020/12/10 14:00:35;;;;;;;;;;;6.50;75.10;;;;;;4985006;28;120214;-90
2020/12/10 14:03:01;;;;;;;;;;;6.50;75.10;;;;;;4986042;28;117403;-90
2020/12/10 14:05:26;;;;;;;;;;;6.50;75.20;;;;;;4985666;28;117737;-90
2020/12/10 14:07:52;;;;;;;;;;;6.50;75.20;;;;;;4985092;28;120147;-91
2020/12/10 14:10:17;;;;;;;;;;;6.50;75.10;;;;;;4985834;28;119264;-91
2020/12/10 14:12:43;;;;;;;;;;;6.50;75.10;;;;;;4986460;28;117541;-89